createdAt,value
2019-03-31T00:00:15.525Z,61.95
2019-03-31T00:02:44.390Z,62.38
2019-03-31T00:05:13.236Z,62.49
2019-03-31T00:07:42.195Z,62.18
2019-03-31T00:10:11.015Z,62.58
2019-03-31T00:12:39.932Z,63.14
2019-03-31T00:15:08.896Z,63.02
2019-03-31T00:17:37.743Z,62.92
2019-03-31T00:20:06.626Z,62.87
2019-03-31T00:22:35.534Z,63.07
2019-03-31T00:25:05.665Z,62.92
2019-03-31T00:27:34.511Z,62.92
2019-03-31T00:30:03.455Z,63.07
2019-03-31T00:32:32.314Z,63.23
2019-03-31T00:35:01.404Z,63.09
2019-03-31T00:37:30.245Z,62.91
2019-03-31T00:39:59.084Z,63.17
2019-03-31T00:42:27.919Z,63.29
2019-03-31T00:44:56.766Z,63.05
2019-03-31T00:47:25.621Z,63.31
2019-03-31T00:49:54.451Z,63.85
2019-03-31T00:52:23.430Z,63.98
2019-03-31T00:54:52.342Z,64.06
2019-03-31T00:57:21.171Z,63.99
2019-03-31T00:59:49.999Z,64.04
2019-03-31T01:02:20.505Z,63.79
2019-03-31T01:04:49.325Z,63.92
2019-03-31T01:07:18.287Z,63.57
2019-03-31T01:09:47.253Z,64.08
2019-03-31T01:12:16.391Z,64.27
2019-03-31T01:14:45.250Z,64.22
2019-03-31T01:17:14.863Z,64.17
2019-03-31T01:19:43.703Z,63.31
2019-03-31T01:22:12.542Z,63.93
2019-03-31T01:24:41.382Z,64.04
2019-03-31T01:27:10.563Z,63.86
2019-03-31T01:29:39.400Z,63.38
2019-03-31T01:32:08.236Z,63.71
2019-03-31T01:34:37.069Z,63.95
2019-03-31T01:37:06.315Z,64.31
2019-03-31T01:39:35.470Z,63.84
2019-03-31T01:42:04.313Z,64.45
2019-03-31T01:44:33.131Z,64.67
2019-03-31T01:47:01.979Z,65.53
2019-03-31T01:49:30.854Z,65.84
2019-03-31T01:51:59.761Z,65.79
2019-03-31T01:54:28.611Z,65.16
2019-03-31T01:56:57.391Z,65.76
2019-03-31T01:59:26.240Z,66.25
2019-03-31T02:02:04.101Z,65.57
2019-03-31T02:04:25.744Z,65.74
2019-03-31T02:06:54.532Z,65.80
2019-03-31T02:09:23.380Z,66.45
2019-03-31T02:11:52.174Z,66.10
2019-03-31T02:14:21.000Z,65.48
2019-03-31T02:16:49.873Z,65.73
2019-03-31T02:19:18.705Z,66.21
2019-03-31T02:21:47.487Z,66.61
2019-03-31T02:24:16.311Z,66.53
2019-03-31T02:26:45.153Z,66.47
2019-03-31T02:29:14.005Z,67.34
2019-03-31T02:31:42.853Z,66.98
2019-03-31T02:34:11.707Z,66.62
2019-03-31T02:36:40.557Z,67.39
2019-03-31T02:39:09.614Z,67.46
2019-03-31T02:41:38.390Z,67.17
2019-03-31T02:44:07.147Z,67.87
2019-03-31T02:46:35.987Z,68.08
2019-03-31T02:49:04.864Z,68.28
2019-03-31T02:51:33.701Z,68.11
2019-03-31T02:54:02.538Z,67.66
2019-03-31T02:56:32.669Z,67.66
2019-03-31T02:59:02.252Z,67.04
2019-03-31T03:01:32.888Z,67.30
2019-03-31T03:04:07.717Z,67.56
2019-03-31T03:06:35.920Z,67.61
2019-03-31T03:09:06.655Z,67.56
2019-03-31T03:11:35.820Z,67.90
2019-03-31T03:14:06.061Z,67.82
2019-03-31T03:16:35.178Z,67.55
2019-03-31T03:19:04.013Z,67.78
2019-03-31T03:21:32.846Z,67.94
2019-03-31T03:24:01.708Z,68.01
2019-03-31T03:26:30.559Z,67.89
2019-03-31T03:28:59.382Z,67.81
2019-03-31T03:31:28.201Z,67.78
2019-03-31T03:33:57.048Z,67.50
2019-03-31T03:36:25.884Z,66.91
2019-03-31T03:38:54.722Z,67.68
2019-03-31T03:41:23.577Z,67.91
2019-03-31T03:43:59.673Z,67.77
2019-03-31T03:46:22.982Z,67.78
2019-03-31T03:48:51.887Z,67.44
2019-03-31T03:51:20.764Z,66.73
2019-03-31T03:53:49.599Z,67.81
2019-03-31T03:56:18.452Z,67.80
2019-03-31T03:58:47.208Z,67.69
2019-03-31T04:01:17.606Z,67.27
2019-03-31T04:03:46.447Z,67.65
2019-03-31T04:06:15.282Z,67.30
2019-03-31T04:08:44.119Z,67.10
2019-03-31T04:11:20.602Z,67.78
2019-03-31T04:13:46.325Z,68.22
2019-03-31T04:16:15.126Z,68.31
2019-03-31T04:18:44.075Z,68.23
2019-03-31T04:21:13.062Z,67.92
2019-03-31T04:23:41.979Z,68.08
2019-03-31T04:26:10.786Z,67.48
2019-03-31T04:28:39.575Z,66.93
2019-03-31T04:31:08.364Z,66.04
2019-03-31T04:33:50.511Z,65.81
2019-03-31T04:36:07.662Z,65.30
2019-03-31T04:38:36.520Z,64.84
2019-03-31T04:41:05.471Z,63.58
2019-03-31T04:43:34.332Z,63.51
2019-03-31T04:46:03.174Z,63.87
2019-03-31T04:48:32.010Z,63.69
2019-03-31T04:51:00.850Z,63.65
2019-03-31T04:53:29.792Z,63.63
2019-03-31T04:55:58.699Z,63.58
2019-03-31T04:58:27.464Z,63.40
2019-03-31T05:00:56.374Z,62.83
2019-03-31T05:03:25.208Z,62.54
2019-03-31T05:05:54.069Z,62.09
2019-03-31T05:08:22.827Z,62.01
2019-03-31T05:10:51.759Z,60.12
2019-03-31T05:13:25.636Z,60.40
2019-03-31T05:15:54.099Z,60.27
2019-03-31T05:18:22.942Z,59.63
2019-03-31T05:20:51.787Z,59.25
2019-03-31T05:23:20.617Z,59.17
2019-03-31T05:25:49.530Z,58.96
2019-03-31T05:28:18.266Z,58.46
2019-03-31T05:30:47.182Z,58.73
2019-03-31T05:33:16.191Z,58.32
2019-03-31T05:35:45.619Z,57.11
2019-03-31T05:38:14.450Z,56.56
2019-03-31T05:40:43.217Z,56.84
2019-03-31T05:43:12.651Z,56.35
2019-03-31T05:45:42.130Z,56.29
2019-03-31T05:48:11.502Z,56.43
2019-03-31T05:50:40.873Z,56.36
2019-03-31T05:53:10.209Z,56.56
2019-03-31T05:55:39.659Z,55.98
2019-03-31T05:58:09.068Z,54.83
2019-03-31T06:00:40.682Z,54.63
2019-03-31T06:03:10.242Z,54.23
2019-03-31T06:05:39.642Z,53.89
2019-03-31T06:08:09.083Z,53.68
2019-03-31T06:10:38.542Z,53.12
2019-03-31T06:13:08.047Z,52.53
2019-03-31T06:15:37.525Z,51.92
2019-03-31T06:18:06.941Z,51.54
2019-03-31T06:20:36.462Z,50.70
2019-03-31T06:23:06.065Z,49.56
2019-03-31T06:25:35.570Z,49.60
2019-03-31T06:28:05.044Z,49.28
2019-03-31T06:30:34.560Z,48.10
2019-03-31T06:33:04.045Z,47.54
2019-03-31T06:35:33.455Z,47.70
2019-03-31T06:38:02.876Z,47.16
2019-03-31T06:40:32.346Z,46.98
2019-03-31T06:43:01.745Z,46.42
2019-03-31T06:45:31.194Z,45.79
2019-03-31T06:48:00.698Z,45.38
2019-03-31T06:50:30.144Z,45.16
2019-03-31T06:52:59.590Z,45.14
2019-03-31T06:55:29.052Z,45.25
2019-03-31T06:57:58.468Z,44.82
2019-03-31T07:00:27.975Z,45.27
2019-03-31T07:02:57.472Z,44.63
2019-03-31T07:05:26.999Z,43.86
2019-03-31T07:07:56.458Z,43.46
2019-03-31T07:10:25.910Z,43.58
2019-03-31T07:12:55.398Z,43.70
2019-03-31T07:15:24.906Z,42.93
2019-03-31T07:17:54.333Z,43.34
2019-03-31T07:20:23.788Z,42.44
2019-03-31T07:22:53.298Z,41.52
2019-03-31T07:25:22.991Z,41.15
2019-03-31T07:27:52.476Z,41.40
2019-03-31T07:30:22.471Z,41.34
2019-03-31T07:32:51.978Z,40.76
2019-03-31T07:35:21.572Z,40.40
2019-03-31T07:37:51.025Z,40.51
2019-03-31T07:40:22.103Z,40.71
2019-03-31T07:42:51.603Z,39.99
2019-03-31T07:45:21.190Z,39.53
2019-03-31T07:47:51.067Z,38.22
2019-03-31T07:50:20.980Z,37.89
2019-03-31T07:52:50.444Z,38.04
2019-03-31T07:55:20.198Z,37.79
2019-03-31T07:57:49.659Z,36.95
2019-03-31T08:00:21.702Z,37.13
2019-03-31T08:02:51.201Z,36.92
2019-03-31T08:05:32.394Z,36.39
2019-03-31T08:07:51.855Z,36.84
2019-03-31T08:10:21.605Z,36.04
2019-03-31T08:12:51.312Z,36.58
2019-03-31T08:15:20.831Z,35.69
2019-03-31T08:17:50.414Z,35.32
2019-03-31T08:20:20.266Z,35.67
2019-03-31T08:22:49.728Z,34.61
2019-03-31T08:25:19.265Z,35.35
2019-03-31T08:27:48.748Z,34.86
2019-03-31T08:30:19.990Z,33.86
2019-03-31T08:32:49.433Z,33.59
2019-03-31T08:35:20.734Z,33.27
2019-03-31T08:37:50.240Z,32.48
2019-03-31T08:40:19.852Z,33.83
2019-03-31T08:42:49.310Z,33.20
2019-03-31T08:45:18.802Z,31.56
2019-03-31T08:47:48.259Z,32.04
2019-03-31T08:50:17.998Z,32.33
2019-03-31T08:52:47.474Z,31.52
2019-03-31T08:55:16.927Z,32.37
2019-03-31T08:57:46.365Z,31.83
2019-03-31T09:00:17.780Z,31.04
2019-03-31T09:02:47.212Z,30.82
2019-03-31T09:05:16.681Z,30.93
2019-03-31T09:07:46.116Z,31.06
2019-03-31T09:10:15.831Z,30.03
2019-03-31T09:12:48.331Z,29.86
2019-03-31T09:15:16.506Z,28.55
2019-03-31T09:17:45.973Z,28.60
2019-03-31T09:20:15.989Z,28.87
2019-03-31T09:22:45.402Z,29.97
2019-03-31T09:25:14.892Z,27.83
2019-03-31T09:27:44.477Z,27.70
2019-03-31T09:30:14.218Z,28.51
2019-03-31T09:32:43.773Z,28.24
2019-03-31T09:35:13.267Z,28.00
2019-03-31T09:37:42.743Z,29.53
2019-03-31T09:40:12.517Z,28.56
2019-03-31T09:42:41.961Z,27.32
2019-03-31T09:45:11.966Z,28.36
2019-03-31T09:47:41.450Z,27.71
2019-03-31T09:50:16.836Z,28.42
2019-03-31T09:52:44.231Z,27.97
2019-03-31T09:55:13.914Z,26.78
2019-03-31T09:57:43.424Z,25.88
2019-03-31T10:00:18.363Z,27.47
2019-03-31T10:02:47.852Z,27.47
2019-03-31T10:05:17.357Z,25.70
2019-03-31T10:07:46.793Z,26.40
2019-03-31T10:10:22.002Z,26.40
2019-03-31T10:12:51.557Z,27.10
2019-03-31T10:15:21.009Z,25.65
2019-03-31T10:17:50.479Z,25.65
2019-03-31T10:20:20.076Z,25.93
2019-03-31T10:22:49.527Z,25.95
2019-03-31T10:25:18.982Z,26.15
2019-03-31T10:27:48.435Z,26.15
2019-03-31T10:30:33.091Z,27.90
2019-03-31T10:33:02.665Z,27.90
2019-03-31T10:35:32.409Z,26.51
2019-03-31T10:38:02.529Z,26.51
2019-03-31T10:40:32.196Z,26.00
2019-03-31T10:43:01.683Z,24.78
2019-03-31T10:45:31.188Z,24.78
2019-03-31T10:48:00.628Z,24.92
2019-03-31T10:50:30.047Z,25.31
2019-03-31T10:52:59.506Z,25.31
2019-03-31T10:55:29.107Z,25.25
2019-03-31T10:57:58.544Z,24.54
2019-03-31T11:00:38.274Z,24.20
2019-03-31T11:03:08.620Z,23.50
2019-03-31T11:05:38.201Z,24.03
2019-03-31T11:08:07.786Z,23.56
2019-03-31T11:10:37.429Z,23.56
2019-03-31T11:13:07.225Z,23.43
2019-03-31T11:15:36.645Z,23.43
2019-03-31T11:18:06.117Z,23.35
2019-03-31T11:20:35.583Z,23.35
2019-03-31T11:25:57.984Z,23.01
2019-03-31T11:28:27.487Z,23.01
2019-03-31T11:30:56.992Z,22.42
2019-03-31T11:33:26.659Z,22.42
2019-03-31T11:35:56.164Z,22.50
2019-03-31T11:38:25.594Z,22.17
2019-03-31T11:40:55.072Z,22.75
2019-03-31T11:43:24.206Z,22.75
2019-03-31T11:45:53.669Z,21.90
2019-03-31T11:48:23.201Z,21.90
2019-03-31T11:50:52.308Z,22.76
2019-03-31T11:53:21.778Z,21.30
2019-03-31T11:55:51.217Z,22.60
2019-03-31T11:58:20.354Z,22.60
2019-03-31T12:00:51.061Z,22.09
2019-03-31T12:03:20.247Z,22.09
2019-03-31T12:05:49.633Z,22.34
2019-03-31T12:08:19.079Z,22.56
2019-03-31T12:10:48.275Z,22.56
2019-03-31T12:13:17.682Z,22.95
2019-03-31T12:15:46.940Z,21.93
2019-03-31T12:18:16.148Z,21.57
2019-03-31T12:20:45.376Z,21.84
2019-03-31T12:23:14.635Z,22.03
2019-03-31T12:25:45.674Z,21.27
2019-03-31T12:28:14.854Z,20.99
2019-03-31T12:30:43.945Z,21.21
2019-03-31T12:33:13.077Z,21.28
2019-03-31T12:35:42.200Z,21.85
2019-03-31T12:38:11.476Z,21.13
2019-03-31T12:40:43.916Z,20.92
2019-03-31T12:43:13.148Z,21.86
2019-03-31T12:45:43.353Z,21.86
2019-03-31T12:48:12.758Z,21.34
2019-03-31T12:50:42.236Z,21.24
2019-03-31T12:53:11.400Z,21.24
2019-03-31T12:55:40.849Z,22.24
2019-03-31T12:58:10.398Z,22.92
2019-03-31T13:00:39.570Z,22.89
2019-03-31T13:03:09.070Z,22.89
2019-03-31T13:05:38.556Z,22.49
2019-03-31T13:08:08.124Z,22.69
2019-03-31T13:10:37.665Z,23.24
2019-03-31T13:13:06.809Z,23.24
2019-03-31T13:15:35.994Z,21.98
2019-03-31T13:18:05.525Z,22.04
2019-03-31T13:20:34.873Z,22.58
2019-03-31T13:23:04.063Z,22.63
2019-03-31T13:25:33.531Z,22.63
2019-03-31T13:28:05.492Z,23.01
2019-03-31T13:30:34.119Z,23.01
2019-03-31T13:33:03.636Z,23.10
2019-03-31T13:35:33.128Z,23.10
2019-03-31T13:38:10.898Z,23.12
2019-03-31T13:40:33.780Z,23.35
2019-03-31T13:43:03.061Z,23.35
2019-03-31T13:45:32.544Z,23.08
2019-03-31T13:48:02.083Z,24.13
2019-03-31T13:50:31.645Z,23.50
2019-03-31T13:53:01.225Z,23.50
2019-03-31T13:55:30.836Z,22.85
2019-03-31T13:58:02.669Z,22.65
2019-03-31T14:00:37.318Z,22.76
2019-03-31T14:03:06.956Z,23.40
2019-03-31T14:05:36.056Z,23.40
2019-03-31T14:08:05.804Z,23.12
2019-03-31T14:10:38.736Z,24.23
2019-03-31T14:13:15.548Z,24.23
2019-03-31T14:15:45.145Z,24.01
2019-03-31T14:18:17.155Z,23.52
2019-03-31T14:20:50.027Z,24.01
2019-03-31T14:23:30.590Z,23.46
2019-03-31T14:26:00.855Z,24.78
2019-03-31T14:28:30.826Z,24.78
2019-03-31T14:31:01.416Z,25.09
2019-03-31T14:33:31.293Z,23.48
2019-03-31T14:36:02.607Z,23.48
2019-03-31T14:38:39.930Z,25.22
2019-03-31T14:41:06.402Z,25.22
2019-03-31T14:43:38.790Z,24.62
2019-03-31T14:46:08.218Z,25.29
2019-03-31T14:48:37.849Z,25.42
2019-03-31T14:51:07.338Z,24.92
2019-03-31T14:53:36.860Z,25.64
2019-03-31T14:56:06.328Z,25.64
2019-03-31T14:58:35.736Z,24.81
2019-03-31T15:01:05.335Z,24.81
2019-03-31T15:03:34.824Z,25.26
2019-03-31T15:06:04.318Z,25.51
2019-03-31T15:08:33.805Z,25.63
2019-03-31T15:11:03.262Z,25.63
2019-03-31T15:13:32.815Z,25.19
2019-03-31T15:16:02.302Z,25.15
2019-03-31T15:18:31.803Z,25.15
2019-03-31T15:21:01.271Z,26.13
2019-03-31T15:23:30.721Z,26.13
2019-03-31T15:26:00.382Z,25.76
2019-03-31T15:28:29.889Z,26.19
2019-03-31T15:30:59.335Z,25.82
2019-03-31T15:33:28.809Z,25.15
2019-03-31T15:35:58.241Z,24.98
2019-03-31T15:38:27.678Z,24.98
2019-03-31T15:40:57.239Z,25.14
2019-03-31T15:43:26.647Z,25.24
2019-03-31T15:45:56.096Z,24.92
2019-03-31T15:48:25.777Z,25.20
2019-03-31T15:50:55.798Z,25.20
2019-03-31T15:53:25.354Z,25.22
2019-03-31T15:55:54.809Z,26.36
2019-03-31T15:58:24.396Z,27.75
2019-03-31T16:00:53.902Z,28.48
2019-03-31T16:03:23.377Z,28.48
2019-03-31T16:05:52.869Z,29.42
2019-03-31T16:08:22.312Z,29.70
2019-03-31T16:10:51.719Z,30.20
2019-03-31T16:13:21.183Z,30.40
2019-03-31T16:15:50.623Z,30.52
2019-03-31T16:18:20.197Z,30.71
2019-03-31T16:20:49.764Z,31.15
2019-03-31T16:23:19.339Z,31.69
2019-03-31T16:25:50.352Z,31.40
2019-03-31T16:28:19.779Z,31.55
2019-03-31T16:30:49.261Z,32.06
2019-03-31T16:33:18.702Z,32.63
2019-03-31T16:35:48.253Z,33.45
2019-03-31T16:38:17.788Z,33.85
2019-03-31T16:40:47.276Z,34.21
2019-03-31T16:43:16.740Z,34.61
2019-03-31T16:45:46.199Z,34.67
2019-03-31T16:48:15.659Z,35.07
2019-03-31T16:50:45.161Z,35.30
2019-03-31T16:53:14.630Z,35.63
2019-03-31T16:55:44.131Z,36.02
2019-03-31T16:58:16.383Z,36.43
2019-03-31T17:00:45.930Z,36.71
2019-03-31T17:03:18.242Z,37.05
2019-03-31T17:05:46.747Z,37.31
2019-03-31T17:08:16.193Z,37.33
2019-03-31T17:10:45.677Z,37.66
2019-03-31T17:13:15.290Z,37.74
2019-03-31T17:15:44.965Z,38.86
2019-03-31T17:18:14.515Z,39.13
2019-03-31T17:20:44.181Z,39.12
2019-03-31T17:23:13.682Z,40.16
2019-03-31T17:25:43.200Z,40.27
2019-03-31T17:28:12.636Z,39.65
2019-03-31T17:30:42.204Z,39.78
2019-03-31T17:33:11.683Z,39.82
2019-03-31T17:35:41.245Z,39.91
2019-03-31T17:38:11.003Z,40.58
2019-03-31T17:40:40.472Z,40.96
2019-03-31T17:43:16.206Z,41.77
2019-03-31T17:45:41.376Z,41.16
2019-03-31T17:48:10.841Z,40.89
2019-03-31T17:50:40.392Z,41.83
2019-03-31T17:53:09.892Z,41.63
2019-03-31T17:55:39.481Z,41.50
2019-03-31T17:58:08.989Z,41.82
2019-03-31T18:00:38.465Z,41.83
2019-03-31T18:03:07.965Z,42.48
2019-03-31T18:05:37.469Z,42.77
2019-03-31T18:08:07.066Z,43.19
2019-03-31T18:10:36.554Z,42.91
2019-03-31T18:13:06.040Z,42.32
2019-03-31T18:15:35.530Z,42.19
2019-03-31T18:18:05.034Z,42.06
2019-03-31T18:20:34.491Z,41.53
2019-03-31T18:23:04.097Z,41.54
2019-03-31T18:25:33.542Z,41.78
2019-03-31T18:28:03.051Z,41.42
2019-03-31T18:30:32.565Z,41.44
2019-03-31T18:33:02.059Z,41.97
2019-03-31T18:35:31.638Z,41.98
2019-03-31T18:38:01.213Z,42.83
2019-03-31T18:40:35.342Z,43.25
2019-03-31T18:43:02.117Z,42.83
2019-03-31T18:45:31.740Z,43.24
2019-03-31T18:48:01.494Z,43.54
2019-03-31T18:50:31.114Z,43.10
2019-03-31T18:53:00.764Z,43.15
2019-03-31T18:55:34.656Z,42.95
2019-03-31T18:58:14.719Z,43.13
2019-03-31T19:01:04.135Z,42.71
2019-03-31T19:03:35.197Z,42.81
2019-03-31T19:06:22.219Z,43.03
2019-03-31T19:08:53.245Z,42.94
2019-03-31T19:11:31.414Z,43.20
2019-03-31T19:14:17.551Z,43.06
2019-03-31T19:16:51.759Z,42.97
2019-03-31T19:22:25.758Z,43.09
2019-03-31T19:25:00.083Z,43.19
2019-03-31T19:27:37.128Z,43.31
2019-03-31T19:30:15.437Z,43.54
2019-03-31T19:33:00.798Z,43.86
2019-03-31T19:35:33.482Z,44.04
2019-03-31T19:38:07.473Z,44.55
2019-03-31T19:40:47.053Z,45.08
2019-03-31T19:43:30.107Z,45.84
2019-03-31T19:46:01.163Z,46.34
2019-03-31T19:48:41.332Z,46.34
2019-03-31T19:51:29.010Z,46.36
2019-03-31T19:54:00.049Z,46.76
2019-03-31T19:56:47.604Z,46.90
2019-03-31T19:59:24.493Z,47.21
2019-03-31T20:01:55.525Z,47.41
2019-03-31T20:04:29.524Z,46.95
2019-03-31T20:07:16.831Z,46.75
2019-03-31T20:09:47.870Z,46.98
2019-03-31T20:12:28.195Z,46.80
2019-03-31T20:15:08.256Z,47.15
2019-03-31T20:17:39.285Z,47.28
2019-03-31T20:20:10.273Z,47.84
2019-03-31T20:22:53.561Z,47.89
2019-03-31T20:25:24.535Z,48.14
2019-03-31T20:27:59.745Z,48.21
2019-03-31T20:30:30.861Z,48.19
2019-03-31T20:33:18.047Z,48.30
2019-03-31T20:35:49.088Z,48.91
2019-03-31T20:38:25.837Z,49.78
2019-03-31T20:40:56.873Z,50.37
2019-03-31T20:43:39.829Z,50.59
2019-03-31T20:46:09.198Z,50.96
2019-03-31T20:48:38.718Z,50.95
2019-03-31T20:51:08.132Z,50.85
2019-03-31T20:53:37.596Z,50.63
2019-03-31T20:56:07.034Z,50.84
2019-03-31T20:58:36.470Z,50.67
2019-03-31T21:01:05.891Z,50.73
2019-03-31T21:03:35.372Z,50.46
2019-03-31T21:06:04.931Z,50.21
2019-03-31T21:08:34.438Z,50.03
2019-03-31T21:11:03.893Z,49.77
2019-03-31T21:13:33.323Z,50.65
2019-03-31T21:16:02.753Z,50.85
2019-03-31T21:18:32.203Z,51.09
2019-03-31T21:21:01.709Z,51.83
2019-03-31T21:23:31.086Z,51.97
2019-03-31T21:26:00.552Z,52.38
2019-03-31T21:28:29.998Z,52.67
2019-03-31T21:30:59.457Z,52.91
2019-03-31T21:33:29.061Z,53.51
2019-03-31T21:35:58.540Z,54.05
2019-03-31T21:38:28.019Z,54.37
2019-03-31T21:40:57.437Z,53.85
2019-03-31T21:43:26.882Z,53.83
2019-03-31T21:45:56.271Z,53.86
2019-03-31T21:48:25.707Z,53.57
2019-03-31T21:50:55.155Z,53.65
2019-03-31T21:53:24.598Z,53.87
2019-03-31T21:55:54.054Z,54.06
2019-03-31T21:58:23.502Z,54.37
2019-03-31T22:00:55.103Z,54.01
2019-03-31T22:03:24.654Z,54.41
2019-03-31T22:05:54.117Z,54.24
2019-03-31T22:08:23.554Z,54.38
2019-03-31T22:10:53.009Z,54.44
2019-03-31T22:13:22.439Z,54.01
2019-03-31T22:15:51.808Z,53.73
2019-03-31T22:18:21.452Z,54.30
2019-03-31T22:20:50.834Z,54.13
2019-03-31T22:23:20.188Z,54.63
2019-03-31T22:25:49.611Z,54.80
2019-03-31T22:28:19.074Z,54.70
2019-03-31T22:30:48.509Z,54.96
2019-03-31T22:33:17.939Z,55.40
2019-03-31T22:36:05.266Z,55.43
2019-03-31T22:38:34.771Z,55.77
2019-03-31T22:41:04.480Z,55.73
2019-03-31T22:43:33.897Z,55.58
2019-03-31T22:46:03.502Z,55.30
2019-03-31T22:48:32.973Z,55.83
2019-03-31T22:51:02.411Z,56.15
2019-03-31T22:53:31.885Z,56.08
2019-03-31T22:56:01.288Z,56.19
2019-03-31T22:58:30.746Z,56.60
2019-03-31T23:01:00.210Z,56.57
2019-03-31T23:03:29.726Z,56.95
2019-03-31T23:05:59.147Z,57.06
2019-03-31T23:08:28.623Z,57.41
2019-03-31T23:10:58.039Z,57.47
2019-03-31T23:13:27.542Z,57.44
2019-03-31T23:15:56.909Z,57.56
2019-03-31T23:18:26.349Z,58.01
2019-03-31T23:20:55.727Z,58.26
2019-03-31T23:23:25.178Z,58.20
2019-03-31T23:25:54.557Z,58.33
2019-03-31T23:28:24.061Z,58.26
2019-03-31T23:30:53.493Z,58.64
2019-03-31T23:33:22.922Z,58.70
2019-03-31T23:35:52.404Z,59.31
2019-03-31T23:38:21.915Z,59.20
2019-03-31T23:40:51.320Z,59.01
2019-03-31T23:43:20.782Z,58.55
2019-03-31T23:45:50.259Z,58.52
2019-03-31T23:48:19.866Z,58.38
2019-03-31T23:50:49.336Z,58.66
2019-03-31T23:53:18.905Z,58.91
2019-03-31T23:55:48.343Z,59.07
2019-03-31T23:58:17.186Z,58.80
